Time;durP1;ratioP1;P1;durP2;ratioP2;P2;SDS_P1;SDS_P2;PMS_P1;PMS_P2;Temp;Humidity;BMP_temperature;BMP_pressure;BME280_temperature;BME280_humidity;BME280_pressure;Samples;Min_cycle;Max_cycle;Signal;HPM_P1;HPM_P2
2021/08/23 00:01:11;;;;;;;6.00;5.07;;;14.60;99.90;;;;;;4971544;28;20785;-93
2021/08/23 00:03:38;;;;;;;5.80;4.87;;;14.70;99.90;;;;;;4987982;28;20669;-92
2021/08/23 00:06:06;;;;;;;5.20;4.70;;;14.70;99.90;;;;;;4985082;28;20619;-93
2021/08/23 00:08:33;;;;;;;5.53;5.10;;;14.70;99.90;;;;;;4978219;28;20656;-92
2021/08/23 00:11:00;;;;;;;5.40;4.80;;;14.70;99.90;;;;;;4973122;28;20640;-93
2021/08/23 00:13:27;;;;;;;5.60;4.97;;;14.70;99.90;;;;;;4974405;28;20627;-94
2021/08/23 00:15:55;;;;;;;5.00;4.50;;;14.70;99.90;;;;;;4970312;28;20638;-94
2021/08/23 00:18:23;;;;;;;5.13;4.67;;;14.70;99.90;;;;;;4973932;28;20676;-93
2021/08/23 00:20:55;;;;;;;4.70;4.23;;;14.80;99.90;;;;;;4974638;28;20902;-93
2021/08/23 00:23:25;;;;;;;4.60;4.20;;;14.70;99.90;;;;;;4966836;28;20657;-94
2021/08/23 00:25:52;;;;;;;7.97;4.40;;;14.80;99.90;;;;;;4970908;28;21183;-93
2021/08/23 00:28:20;;;;;;;6.30;4.77;;;14.90;99.90;;;;;;4969777;28;20652;-93
2021/08/23 00:30:48;;;;;;;4.77;4.20;;;14.90;99.90;;;;;;4969425;28;20697;-93
2021/08/23 00:33:17;;;;;;;7.47;4.97;;;14.90;99.90;;;;;;4969559;28;20643;-93
2021/08/23 00:35:44;;;;;;;5.70;5.00;;;14.90;99.90;;;;;;4967545;28;20664;-93
2021/08/23 00:38:12;;;;;;;6.13;4.40;;;14.80;99.90;;;;;;4968597;28;20646;-93
2021/08/23 00:40:39;;;;;;;4.57;4.17;;;14.80;99.90;;;;;;4968176;28;20666;-95
2021/08/23 00:43:07;;;;;;;4.50;4.10;;;14.90;99.90;;;;;;4967810;28;20666;-93
2021/08/23 00:45:34;;;;;;;4.20;3.90;;;14.80;99.90;;;;;;4969597;28;20637;-93
2021/08/23 00:48:01;;;;;;;4.93;4.47;;;14.80;99.90;;;;;;4962893;28;20606;-93
2021/08/23 00:50:29;;;;;;;8.00;4.60;;;14.80;99.90;;;;;;4967199;28;20668;-93
2021/08/23 00:52:57;;;;;;;5.33;4.60;;;14.90;99.90;;;;;;4964257;28;21162;-93
2021/08/23 00:55:24;;;;;;;4.70;4.20;;;14.90;99.90;;;;;;4965388;28;20993;-94
2021/08/23 00:57:51;;;;;;;5.50;4.70;;;14.90;99.90;;;;;;4969028;28;20781;-93
2021/08/23 01:00:19;;;;;;;5.37;4.30;;;14.90;99.90;;;;;;4970673;28;20700;-94
2021/08/23 01:02:55;;;;;;;6.93;5.17;;;14.90;99.90;;;;;;4965047;28;21078;-93
2021/08/23 01:05:27;;;;;;;5.83;5.10;;;14.90;99.90;;;;;;4967348;28;20633;-93
2021/08/23 01:08:00;;;;;;;5.90;4.60;;;14.80;99.90;;;;;;4969132;28;20621;-93
2021/08/23 01:10:31;;;;;;;4.80;4.40;;;14.80;99.90;;;;;;4975981;28;21024;-94
2021/08/23 01:13:01;;;;;;;5.97;4.40;;;14.80;99.90;;;;;;4967245;28;20614;-93
2021/08/23 01:15:28;;;;;;;6.53;4.50;;;14.80;99.90;;;;;;4964339;28;20645;-93
2021/08/23 01:17:56;;;;;;;7.30;4.70;;;14.80;99.90;;;;;;4972804;28;20636;-93
2021/08/23 01:20:23;;;;;;;6.10;5.00;;;14.80;99.90;;;;;;4971187;28;20665;-94
2021/08/23 01:22:53;;;;;;;8.20;4.47;;;14.80;99.90;;;;;;4969943;28;20640;-93
2021/08/23 01:25:27;;;;;;;8.00;4.00;;;14.80;99.90;;;;;;4971373;28;20665;-93
2021/08/23 01:28:02;;;;;;;7.03;4.53;;;14.90;99.90;;;;;;4974395;28;20629;-93
2021/08/23 01:30:35;;;;;;;7.13;4.23;;;14.90;99.90;;;;;;4971637;28;20850;-93
2021/08/23 01:33:04;;;;;;;5.40;4.40;;;14.80;99.90;;;;;;4976541;28;20681;-94
2021/08/23 01:35:31;;;;;;;5.90;4.57;;;14.90;99.90;;;;;;4971032;28;20624;-94
2021/08/23 01:37:59;;;;;;;7.47;4.70;;;14.80;99.90;;;;;;4976596;28;20705;-93
2021/08/23 01:40:26;;;;;;;4.40;4.10;;;14.90;99.90;;;;;;4978575;28;20658;-94
2021/08/23 01:42:54;;;;;;;4.90;3.80;;;14.80;99.90;;;;;;4968255;28;20708;-92
2021/08/23 01:45:21;;;;;;;5.10;4.10;;;14.80;99.90;;;;;;4972787;28;20700;-94
2021/08/23 01:47:48;;;;;;;10.27;4.47;;;14.80;99.90;;;;;;4971893;28;20606;-92
2021/08/23 01:50:16;;;;;;;4.40;4.00;;;14.80;99.90;;;;;;4973715;28;20676;-94
2021/08/23 01:52:43;;;;;;;4.73;4.00;;;14.90;99.90;;;;;;5003706;28;20617;-94
2021/08/23 01:55:10;;;;;;;4.67;4.27;;;14.90;99.90;;;;;;4999994;28;20625;-93
2021/08/23 01:57:37;;;;;;;4.60;3.87;;;14.90;99.90;;;;;;4984734;28;20665;-94
2021/08/23 02:00:05;;;;;;;4.70;3.90;;;14.90;99.90;;;;;;4969979;28;20649;-94
2021/08/23 02:02:32;;;;;;;5.57;3.70;;;14.90;99.90;;;;;;4982099;28;20664;-93
2021/08/23 02:04:59;;;;;;;5.53;4.17;;;14.90;99.90;;;;;;4992021;28;20752;-93
2021/08/23 02:07:28;;;;;;;5.13;4.50;;;14.80;99.90;;;;;;4982649;28;20660;-91
2021/08/23 02:09:56;;;;;;;4.37;3.97;;;14.90;99.90;;;;;;4974384;28;20664;-94
2021/08/23 02:12:23;;;;;;;4.80;3.73;;;14.90;99.90;;;;;;4970145;28;20657;-93
2021/08/23 02:15:18;;;;;;;6.50;4.03;;;14.90;99.90;;;;;;4982341;28;20625;-93
2021/08/23 02:17:45;;;;;;;4.17;3.83;;;14.90;99.90;;;;;;4993762;28;20620;-93
2021/08/23 02:20:13;;;;;;;5.30;4.17;;;15.00;99.90;;;;;;4996305;28;20644;-93
2021/08/23 02:22:42;;;;;;;5.13;4.47;;;14.90;99.90;;;;;;4994723;28;20742;-92
2021/08/23 02:25:10;;;;;;;4.97;4.27;;;15.00;99.90;;;;;;4994099;28;20656;-91
2021/08/23 02:27:37;;;;;;;3.60;3.30;;;15.00;99.90;;;;;;4991093;28;20625;-92
2021/08/23 02:30:05;;;;;;;5.00;4.50;;;15.10;99.90;;;;;;4976511;28;20657;-92
2021/08/23 02:32:33;;;;;;;5.73;4.10;;;15.10;99.90;;;;;;4970774;28;20632;-91
2021/08/23 02:35:00;;;;;;;4.83;3.77;;;15.10;99.90;;;;;;4968028;28;20636;-92
2021/08/23 02:37:28;;;;;;;4.23;3.83;;;15.10;99.90;;;;;;4970110;28;20633;-93
2021/08/23 02:39:57;;;;;;;5.17;4.07;;;15.10;99.90;;;;;;4971880;28;20964;-92
2021/08/23 02:42:23;;;;;;;6.53;4.30;;;15.20;99.90;;;;;;4967800;28;20629;-91
2021/08/23 02:44:50;;;;;;;3.73;3.33;;;15.20;99.90;;;;;;4973116;28;20658;-92
2021/08/23 02:47:20;;;;;;;7.10;4.83;;;15.10;99.90;;;;;;4971846;28;20651;-92
2021/08/23 02:49:47;;;;;;;4.77;3.43;;;15.10;99.90;;;;;;4969894;28;21182;-91
2021/08/23 02:52:14;;;;;;;4.37;3.83;;;15.10;99.90;;;;;;4974762;28;20672;-92
2021/08/23 02:54:40;;;;;;;3.90;3.53;;;15.10;99.90;;;;;;4965594;28;21214;-92
2021/08/23 02:57:09;;;;;;;6.53;4.07;;;15.10;99.90;;;;;;4971221;28;20637;-92
2021/08/23 02:59:36;;;;;;;4.70;4.30;;;15.10;99.90;;;;;;4966203;28;20654;-92
2021/08/23 03:02:03;;;;;;;3.33;3.03;;;15.10;99.90;;;;;;4970051;28;20633;-93
2021/08/23 03:04:30;;;;;;;4.33;3.90;;;15.20;99.90;;;;;;4966678;28;20674;-92
2021/08/23 03:06:58;;;;;;;5.33;4.17;;;15.20;99.90;;;;;;4969860;28;20987;-92
2021/08/23 03:09:24;;;;;;;6.40;3.53;;;15.20;99.90;;;;;;4970784;28;20647;-92
2021/08/23 03:11:59;;;;;;;5.00;3.90;;;15.10;99.90;;;;;;4971746;28;20633;-93
2021/08/23 03:14:27;;;;;;;8.20;3.97;;;15.10;99.90;;;;;;4974619;28;20647;-93
2021/08/23 03:16:55;;;;;;;4.30;3.40;;;15.20;99.90;;;;;;4971975;28;20640;-94
2021/08/23 03:19:22;;;;;;;4.50;3.63;;;15.10;99.90;;;;;;4979158;28;20633;-93
2021/08/23 03:21:50;;;;;;;5.87;3.60;;;15.10;99.90;;;;;;4977130;28;21167;-93
2021/08/23 03:24:17;;;;;;;5.27;4.00;;;15.10;99.90;;;;;;4972756;28;20836;-93
2021/08/23 03:26:44;;;;;;;5.67;4.10;;;15.10;99.90;;;;;;4973648;28;21192;-93
2021/08/23 03:29:12;;;;;;;4.53;4.23;;;15.10;99.90;;;;;;4969755;28;20759;-91
2021/08/23 03:31:41;;;;;;;5.97;4.17;;;15.10;99.90;;;;;;4976491;28;20629;-91
2021/08/23 03:34:12;;;;;;;4.87;4.47;;;15.10;99.90;;;;;;4970806;28;20637;-91
2021/08/23 03:36:40;;;;;;;5.97;4.40;;;15.10;99.90;;;;;;4973342;28;20858;-92
2021/08/23 03:39:07;;;;;;;4.23;3.83;;;15.10;99.90;;;;;;4972131;28;20636;-93
2021/08/23 03:41:34;;;;;;;4.90;4.40;;;15.10;99.90;;;;;;4970379;28;20669;-93
2021/08/23 03:44:01;;;;;;;5.40;4.20;;;15.10;99.90;;;;;;4973139;28;20661;-93
2021/08/23 03:46:32;;;;;;;8.13;5.30;;;15.10;99.90;;;;;;4972078;28;20637;-93
2021/08/23 03:49:02;;;;;;;4.50;3.93;;;15.10;99.90;;;;;;4973853;28;20717;-92
2021/08/23 03:51:29;;;;;;;4.70;4.23;;;15.20;99.90;;;;;;4981347;28;20663;-94
2021/08/23 03:53:56;;;;;;;4.43;4.03;;;15.20;99.90;;;;;;4990213;28;20643;-92
2021/08/23 03:56:23;;;;;;;5.00;4.60;;;15.20;99.90;;;;;;4986963;28;20633;-92
2021/08/23 03:58:51;;;;;;;3.80;3.40;;;15.20;99.90;;;;;;4978556;28;20728;-91
2021/08/23 04:01:18;;;;;;;7.03;4.03;;;15.20;99.90;;;;;;4973790;28;20669;-92
2021/08/23 04:03:45;;;;;;;3.97;3.67;;;15.20;99.90;;;;;;4969566;28;20629;-91
2021/08/23 04:06:14;;;;;;;4.03;3.57;;;15.20;99.90;;;;;;4970853;28;20665;-93
2021/08/23 04:08:42;;;;;;;6.13;3.63;;;15.20;99.90;;;;;;4973639;28;20648;-92
2021/08/23 04:11:11;;;;;;;3.40;3.10;;;15.20;99.90;;;;;;4971439;28;20664;-91
2021/08/23 04:13:38;;;;;;;7.77;4.00;;;15.30;99.90;;;;;;4978378;28;20644;-90
2021/08/23 04:16:05;;;;;;;4.80;3.77;;;15.40;99.90;;;;;;4965798;28;20626;-91
2021/08/23 04:18:33;;;;;;;3.90;3.50;;;15.40;99.90;;;;;;4965598;28;20648;-92
2021/08/23 04:21:00;;;;;;;3.97;3.60;;;15.30;99.90;;;;;;4969368;28;21721;-88
2021/08/23 04:23:28;;;;;;;3.90;3.60;;;15.30;99.90;;;;;;4971770;28;20622;-88
2021/08/23 04:25:55;;;;;;;9.80;4.10;;;15.30;99.90;;;;;;4973473;28;21058;-89
2021/08/23 04:28:22;;;;;;;3.80;3.50;;;15.30;99.90;;;;;;4970291;28;20611;-90
2021/08/23 04:30:49;;;;;;;4.83;3.57;;;15.30;99.90;;;;;;4973356;28;20769;-88
2021/08/23 04:33:17;;;;;;;3.97;3.57;;;15.20;99.90;;;;;;4969948;28;20593;-88
2021/08/23 04:35:44;;;;;;;3.33;3.03;;;15.30;99.90;;;;;;4969380;28;20721;-88
2021/08/23 04:38:11;;;;;;;4.40;4.00;;;15.30;99.90;;;;;;4973902;28;20657;-89
2021/08/23 04:40:42;;;;;;;4.90;3.43;;;15.30;99.90;;;;;;4974529;28;20653;-89
2021/08/23 04:43:10;;;;;;;9.63;3.33;;;15.30;99.90;;;;;;4971742;28;20618;-89
2021/08/23 04:45:37;;;;;;;3.13;2.77;;;15.30;99.90;;;;;;4971975;28;21245;-89
2021/08/23 04:48:05;;;;;;;4.27;2.80;;;15.40;99.90;;;;;;4971276;28;20634;-90
2021/08/23 04:50:31;;;;;;;5.87;3.00;;;15.50;99.90;;;;;;4970679;28;20650;-89
2021/08/23 04:52:58;;;;;;;4.57;2.70;;;15.40;99.90;;;;;;4979656;28;20629;-89
2021/08/23 04:55:26;;;;;;;3.73;3.10;;;15.50;99.90;;;;;;4968905;28;20633;-89
2021/08/23 04:57:55;;;;;;;4.13;2.80;;;15.50;99.90;;;;;;4977256;28;20649;-89
2021/08/23 05:00:22;;;;;;;3.00;2.80;;;15.50;99.90;;;;;;4974161;28;20667;-89
2021/08/23 05:02:49;;;;;;;3.73;3.43;;;15.50;99.90;;;;;;4977689;28;20623;-89
2021/08/23 05:05:16;;;;;;;3.23;2.77;;;15.60;99.90;;;;;;4978818;28;20692;-90
2021/08/23 05:07:43;;;;;;;3.60;2.93;;;15.60;99.90;;;;;;4979884;28;20633;-90
2021/08/23 05:10:11;;;;;;;3.27;3.07;;;15.60;99.90;;;;;;4980921;28;20664;-89
2021/08/23 05:12:40;;;;;;;2.57;2.37;;;15.70;99.90;;;;;;4977969;28;21039;-90
2021/08/23 05:15:09;;;;;;;6.53;3.13;;;15.70;99.90;;;;;;4975429;28;20606;-90
2021/08/23 05:17:36;;;;;;;3.83;3.37;;;15.60;99.90;;;;;;4976062;28;20644;-89
2021/08/23 05:20:04;;;;;;;4.57;3.13;;;15.60;99.90;;;;;;4972993;28;20648;-89
2021/08/23 05:22:31;;;;;;;14.00;4.63;;;15.60;99.90;;;;;;4972212;28;20625;-89
2021/08/23 05:24:58;;;;;;;3.37;2.63;;;15.60;99.90;;;;;;4973941;28;20676;-89
2021/08/23 05:27:24;;;;;;;5.10;3.70;;;15.60;99.90;;;;;;4972197;28;20637;-89
2021/08/23 05:29:52;;;;;;;3.43;3.13;;;15.50;99.90;;;;;;4973440;28;20745;-90
2021/08/23 05:32:20;;;;;;;3.70;3.40;;;15.60;99.90;;;;;;4975696;28;20635;-90
2021/08/23 05:34:48;;;;;;;5.80;3.60;;;15.60;99.90;;;;;;4974193;28;20609;-90
2021/08/23 05:37:15;;;;;;;4.47;3.50;;;15.60;99.90;;;;;;4974401;28;21022;-90
2021/08/23 05:39:44;;;;;;;3.83;3.33;;;15.50;99.90;;;;;;4971654;28;20654;-90
2021/08/23 05:42:13;;;;;;;3.77;3.47;;;15.50;99.90;;;;;;4973665;28;21159;-89
2021/08/23 05:44:40;;;;;;;3.97;3.13;;;15.60;99.90;;;;;;4974466;28;20726;-91
2021/08/23 05:47:13;;;;;;;3.47;2.80;;;15.60;99.90;;;;;;4974744;28;20999;-90
2021/08/23 05:49:45;;;;;;;8.77;3.90;;;15.50;99.90;;;;;;4973321;28;20668;-90
2021/08/23 05:52:12;;;;;;;8.00;3.43;;;15.50;99.90;;;;;;4973351;28;20592;-90
2021/08/23 05:54:39;;;;;;;3.67;3.37;;;15.60;99.90;;;;;;4979662;28;20708;-91
2021/08/23 05:57:06;;;;;;;4.23;3.67;;;15.60;99.90;;;;;;4979685;28;21174;-90
2021/08/23 05:59:35;;;;;;;4.33;3.70;;;15.60;99.90;;;;;;4978265;28;20656;-90
2021/08/23 06:02:03;;;;;;;4.10;3.70;;;15.60;99.90;;;;;;4979328;28;20716;-91
2021/08/23 06:04:30;;;;;;;4.10;3.77;;;15.60;99.90;;;;;;4980658;28;20586;-90
2021/08/23 06:07:11;;;;;;;4.10;3.53;;;15.70;99.90;;;;;;4980157;28;20632;-93
2021/08/23 06:09:38;;;;;;;4.33;3.43;;;15.70;99.90;;;;;;4976654;28;20771;-93
2021/08/23 06:12:05;;;;;;;3.47;3.20;;;15.70;99.90;;;;;;4982618;28;20592;-92
2021/08/23 06:14:32;;;;;;;4.80;3.20;;;15.80;99.90;;;;;;4986186;28;20708;-96
2021/08/23 06:16:59;;;;;;;3.93;2.87;;;15.90;99.90;;;;;;4987089;28;20701;-94
2021/08/23 06:19:27;;;;;;;4.17;3.80;;;16.00;99.90;;;;;;4984285;28;20645;-94
2021/08/23 06:21:56;;;;;;;3.90;2.93;;;16.00;99.90;;;;;;4978763;28;20625;-95
2021/08/23 06:24:25;;;;;;;5.83;3.00;;;16.10;99.90;;;;;;4982512;28;20700;-92
2021/08/23 06:26:52;;;;;;;3.10;2.73;;;16.10;99.90;;;;;;4981740;28;20657;-94
2021/08/23 06:29:19;;;;;;;5.07;2.50;;;16.30;99.90;;;;;;4978779;28;20668;-94
2021/08/23 06:31:46;;;;;;;5.00;2.23;;;16.40;99.90;;;;;;4979009;28;20668;-95
2021/08/23 06:34:14;;;;;;;3.00;2.30;;;16.50;99.90;;;;;;4978005;28;20706;-95
2021/08/23 06:36:44;;;;;;;3.10;2.70;;;16.60;99.90;;;;;;4975893;28;21119;-94
2021/08/23 06:39:13;;;;;;;2.83;2.63;;;16.70;99.90;;;;;;4976530;28;20638;-93
2021/08/23 06:41:42;;;;;;;2.63;2.43;;;16.70;99.90;;;;;;4980252;28;20668;-95
2021/08/23 06:44:12;;;;;;;3.30;2.67;;;16.80;99.90;;;;;;4978678;28;20632;-94
2021/08/23 06:46:43;;;;;;;3.23;2.70;;;16.80;99.90;;;;;;4980738;28;20701;-94
2021/08/23 06:49:11;;;;;;;4.43;3.20;;;16.90;99.90;;;;;;4986463;28;20720;-95
2021/08/23 06:51:38;;;;;;;3.40;2.83;;;16.80;99.90;;;;;;4981935;28;20637;-93
2021/08/23 06:54:05;;;;;;;5.73;2.27;;;17.00;99.90;;;;;;4977006;28;20630;-93
2021/08/23 06:56:32;;;;;;;6.13;2.90;;;17.00;99.90;;;;;;4976377;28;20667;-92
2021/08/23 06:59:00;;;;;;;3.60;2.17;;;17.10;99.90;;;;;;4989323;28;20586;-92
2021/08/23 07:01:28;;;;;;;3.20;2.50;;;17.10;99.90;;;;;;4993546;28;20722;-92
2021/08/23 07:03:55;;;;;;;4.80;2.87;;;17.00;99.90;;;;;;4988034;28;20630;-92
2021/08/23 07:06:23;;;;;;;2.90;2.70;;;17.00;99.90;;;;;;4975612;28;20657;-92
2021/08/23 07:08:50;;;;;;;5.90;3.00;;;17.00;99.90;;;;;;4973397;28;20629;-92
2021/08/23 07:11:22;;;;;;;2.90;2.70;;;17.10;99.90;;;;;;4978779;28;20672;-92
2021/08/23 07:16:42;;;;;;;4.00;2.90;;;16.90;99.90;;;;;;4987285;28;21417;-94
2021/08/23 07:19:09;;;;;;;8.40;3.60;;;17.00;99.90;;;;;;4985656;28;20637;-93
2021/08/23 07:21:37;;;;;;;4.80;3.50;;;17.00;99.90;;;;;;4976541;28;20667;-92
2021/08/23 07:24:04;;;;;;;3.90;3.50;;;17.00;99.90;;;;;;4975298;28;20636;-92
2021/08/23 07:26:31;;;;;;;5.13;4.00;;;17.10;99.90;;;;;;4974973;28;20685;-93
2021/08/23 07:28:58;;;;;;;4.03;3.40;;;17.10;99.90;;;;;;4975445;28;20637;-93
2021/08/23 07:31:26;;;;;;;3.50;2.37;;;17.10;99.90;;;;;;4976135;28;21020;-93
2021/08/23 07:33:54;;;;;;;6.63;3.23;;;17.20;99.90;;;;;;4978643;28;20640;-93
2021/08/23 07:36:24;;;;;;;5.87;2.87;;;17.20;99.90;;;;;;4983653;28;20629;-93
2021/08/23 07:38:52;;;;;;;3.87;3.33;;;17.20;99.90;;;;;;4984417;28;20709;-91
2021/08/23 07:41:19;;;;;;;7.83;2.87;;;17.30;99.90;;;;;;4982355;28;20622;-93
2021/08/23 07:43:46;;;;;;;2.83;2.57;;;17.40;99.90;;;;;;4996633;28;20639;-93
2021/08/23 07:46:14;;;;;;;3.40;3.10;;;17.40;99.90;;;;;;4997540;28;20656;-93
2021/08/23 07:48:44;;;;;;;4.17;3.07;;;17.40;99.90;;;;;;4979016;28;20637;-93
2021/08/23 07:51:11;;;;;;;3.60;3.10;;;17.40;99.90;;;;;;4974509;28;20634;-93
2021/08/23 07:53:38;;;;;;;3.53;2.50;;;17.60;99.90;;;;;;4978724;28;20626;-93
2021/08/23 07:56:05;;;;;;;3.40;3.10;;;17.80;99.90;;;;;;4974026;28;20621;-93
2021/08/23 07:58:32;;;;;;;5.10;3.30;;;17.90;99.90;;;;;;4979817;28;20617;-93
2021/08/23 08:00:59;;;;;;;5.53;2.23;;;18.20;99.90;;;;;;4989239;28;20668;-92
2021/08/23 08:03:26;;;;;;;4.17;2.63;;;18.20;99.90;;;;;;4983165;28;20724;-92
2021/08/23 08:05:55;;;;;;;3.53;2.27;;;18.20;99.90;;;;;;4979187;28;20669;-93
2021/08/23 08:08:23;;;;;;;3.87;2.20;;;18.20;99.90;;;;;;4974245;28;21029;-92
2021/08/23 08:10:50;;;;;;;6.47;3.00;;;18.10;99.90;;;;;;4978223;28;20649;-92
2021/08/23 08:13:16;;;;;;;3.30;3.10;;;18.40;99.90;;;;;;4975019;28;20637;-93
2021/08/23 08:15:43;;;;;;;2.87;2.57;;;18.60;99.90;;;;;;4970339;28;20641;-93
2021/08/23 08:18:12;;;;;;;3.20;2.50;;;18.70;99.90;;;;;;4973806;28;21205;-93
2021/08/23 08:20:39;;;;;;;2.43;2.23;;;18.90;99.90;;;;;;4972051;28;21416;-93
2021/08/23 08:23:08;;;;;;;3.50;2.77;;;18.90;99.90;;;;;;4977842;28;20640;-92
2021/08/23 08:25:34;;;;;;;5.67;2.50;;;19.00;99.90;;;;;;4971748;28;21018;-93
2021/08/23 08:28:03;;;;;;;3.77;2.73;;;19.10;99.90;;;;;;4971115;28;20644;-93
2021/08/23 08:30:30;;;;;;;2.83;2.20;;;19.10;99.90;;;;;;4975555;28;20724;-93
2021/08/23 08:32:57;;;;;;;5.13;2.43;;;19.20;99.90;;;;;;4975841;28;20636;-92
2021/08/23 08:35:24;;;;;;;2.80;2.60;;;19.00;99.90;;;;;;4978976;28;21198;-93
2021/08/23 08:37:52;;;;;;;2.47;2.27;;;19.00;99.90;;;;;;4973549;28;20640;-93
2021/08/23 08:40:23;;;;;;;3.50;2.40;;;18.80;99.90;;;;;;4973563;28;20708;-93
2021/08/23 08:42:58;;;;;;;2.20;2.00;;;18.80;99.90;;;;;;4973673;28;20630;-94
2021/08/23 08:45:27;;;;;;;3.87;2.43;;;19.00;99.90;;;;;;4973128;28;20618;-93
2021/08/23 08:47:58;;;;;;;3.77;2.97;;;19.20;99.90;;;;;;4976257;28;20681;-93
2021/08/23 08:50:25;;;;;;;8.30;3.30;;;19.40;99.90;;;;;;4978778;28;20672;-92
2021/08/23 08:52:56;;;;;;;4.80;2.20;;;19.40;99.90;;;;;;4989272;28;20633;-93
2021/08/23 08:55:25;;;;;;;4.53;2.70;;;19.30;99.90;;;;;;4987137;28;20629;-94
2021/08/23 08:57:53;;;;;;;4.40;3.10;;;19.20;99.90;;;;;;4974948;28;20681;-94
2021/08/23 09:00:20;;;;;;;4.07;2.80;;;19.20;99.90;;;;;;4975530;28;20669;-95
2021/08/23 09:03:02;;;;;;;7.27;4.70;;;19.40;99.90;;;;;;4976238;28;20636;-93
2021/08/23 09:05:37;;;;;;;7.83;2.50;;;19.30;99.90;;;;;;4971935;28;20657;-93
2021/08/23 09:08:04;;;;;;;2.40;2.20;;;19.40;99.90;;;;;;4969763;28;20651;-94
2021/08/23 09:10:34;;;;;;;4.33;2.80;;;19.30;99.90;;;;;;4968602;28;20724;-92
2021/08/23 09:13:08;;;;;;;5.73;2.90;;;19.50;99.90;;;;;;4972131;28;21068;-92
2021/08/23 09:15:35;;;;;;;4.93;3.07;;;19.70;99.90;;;;;;4974194;28;20693;-92
2021/08/23 09:18:08;;;;;;;4.40;2.30;;;19.80;99.90;;;;;;4971486;28;20618;-92
2021/08/23 09:20:38;;;;;;;3.07;2.40;;;19.80;99.90;;;;;;4978277;28;21278;-91
2021/08/23 09:23:12;;;;;;;5.27;2.40;;;19.80;99.90;;;;;;4969701;28;20629;-92
2021/08/23 09:25:44;;;;;;;2.80;2.60;;;19.70;99.90;;;;;;4971443;28;20731;-92
2021/08/23 09:28:11;;;;;;;5.23;2.30;;;19.80;99.90;;;;;;4970083;28;20634;-93
2021/08/23 09:30:38;;;;;;;3.60;3.00;;;19.80;99.90;;;;;;4976175;28;20699;-93
2021/08/23 09:33:07;;;;;;;3.27;2.97;;;20.00;99.90;;;;;;4970898;28;21182;-91
2021/08/23 09:35:38;;;;;;;2.93;2.63;;;20.10;99.90;;;;;;4973738;28;20633;-93
2021/08/23 09:38:09;;;;;;;6.43;2.50;;;20.20;99.90;;;;;;4970869;28;20622;-93
2021/08/23 09:40:36;;;;;;;5.10;2.93;;;20.30;99.90;;;;;;4971104;28;20660;-92
2021/08/23 09:43:11;;;;;;;2.73;2.37;;;20.30;99.90;;;;;;4976449;28;20669;-91
2021/08/23 09:45:38;;;;;;;3.43;2.90;;;20.10;99.90;;;;;;4976962;28;21204;-92
2021/08/23 09:48:07;;;;;;;5.20;2.57;;;20.30;99.90;;;;;;4978069;28;20770;-90
2021/08/23 09:50:42;;;;;;;3.80;2.70;;;20.50;99.90;;;;;;4971741;28;21231;-93
2021/08/23 09:53:11;;;;;;;5.00;2.97;;;20.60;99.90;;;;;;4960697;28;21196;-91
2021/08/23 09:55:45;;;;;;;3.97;3.33;;;20.80;99.90;;;;;;4973800;28;20660;-91
2021/08/23 09:58:14;;;;;;;3.07;2.87;;;20.70;99.90;;;;;;4987809;28;20571;-94
2021/08/23 10:00:42;;;;;;;6.90;3.33;;;20.60;99.90;;;;;;4994430;28;20657;-93
2021/08/23 10:03:14;;;;;;;5.33;3.17;;;20.50;99.90;;;;;;4992250;28;20627;-92
2021/08/23 10:05:44;;;;;;;3.13;2.83;;;20.50;99.90;;;;;;4988865;28;20606;-93
2021/08/23 10:08:13;;;;;;;3.40;3.10;;;20.30;99.90;;;;;;4992550;28;20632;-93
2021/08/23 10:10:40;;;;;;;4.70;3.33;;;20.40;99.90;;;;;;4974244;28;20645;-92
2021/08/23 10:13:07;;;;;;;3.10;2.80;;;20.10;99.90;;;;;;4972687;28;20641;-92
2021/08/23 10:15:38;;;;;;;2.57;2.37;;;20.10;99.90;;;;;;4967912;28;20736;-92
2021/08/23 10:18:06;;;;;;;3.87;2.77;;;20.20;99.90;;;;;;4971288;28;20640;-92
2021/08/23 10:20:35;;;;;;;5.10;3.30;;;20.30;99.90;;;;;;4973548;28;20664;-92
2021/08/23 10:23:03;;;;;;;2.57;2.37;;;20.20;99.90;;;;;;4970894;28;20634;-91
2021/08/23 10:25:33;;;;;;;3.80;3.30;;;20.10;99.90;;;;;;4971531;28;20667;-92
2021/08/23 10:28:08;;;;;;;3.90;3.10;;;19.90;99.90;;;;;;4973772;28;20739;-92
2021/08/23 10:30:38;;;;;;;3.33;3.03;;;19.90;99.90;;;;;;4972419;28;20652;-92
2021/08/23 10:33:19;;;;;;;5.37;3.70;;;19.90;99.90;;;;;;4972948;28;20613;-92
2021/08/23 10:35:49;;;;;;;3.20;2.90;;;19.80;99.90;;;;;;4965844;28;21501;-92
2021/08/23 10:38:19;;;;;;;5.70;3.20;;;19.70;99.90;;;;;;4973626;28;20641;-92
2021/08/23 10:40:48;;;;;;;3.20;2.90;;;19.50;99.90;;;;;;4974191;28;20724;-92
2021/08/23 10:43:18;;;;;;;4.43;3.77;;;19.30;99.90;;;;;;4974399;28;21206;-92
2021/08/23 10:45:48;;;;;;;4.23;3.47;;;19.50;99.90;;;;;;4968756;28;20629;-92
2021/08/23 10:48:18;;;;;;;5.03;3.03;;;19.60;99.90;;;;;;4972406;28;21222;-91
2021/08/23 10:50:57;;;;;;;6.13;3.53;;;19.80;99.90;;;;;;4971639;28;20661;-92
2021/08/23 10:53:33;;;;;;;5.20;3.50;;;19.90;99.90;;;;;;4966834;28;20630;-92
2021/08/23 10:56:12;;;;;;;4.53;3.67;;;20.30;99.90;;;;;;4969404;28;20649;-92
2021/08/23 10:58:39;;;;;;;7.40;3.53;;;20.60;99.90;;;;;;4971016;28;20663;-92
2021/08/23 11:01:18;;;;;;;4.97;2.40;;;20.70;99.90;;;;;;4968677;28;21177;-93
2021/08/23 11:03:45;;;;;;;3.20;3.00;;;21.10;99.90;;;;;;4969454;28;20681;-92
2021/08/23 11:06:12;;;;;;;5.10;2.80;;;21.40;99.90;;;;;;4972378;28;21246;-92
2021/08/23 11:08:42;;;;;;;4.07;3.00;;;21.10;99.90;;;;;;4971441;28;20639;-92
2021/08/23 11:11:13;;;;;;;3.40;2.50;;;21.30;99.90;;;;;;4971238;28;20633;-92
2021/08/23 11:13:41;;;;;;;2.50;2.30;;;21.40;99.90;;;;;;4969942;28;20634;-92
2021/08/23 11:16:10;;;;;;;2.30;2.10;;;21.40;99.90;;;;;;4965671;28;20798;-92
2021/08/23 11:18:45;;;;;;;2.40;2.20;;;20.80;99.90;;;;;;4968948;28;20622;-93
2021/08/23 11:21:16;;;;;;;2.17;2.07;;;20.60;99.90;;;;;;4978206;28;20637;-92
2021/08/23 11:23:53;;;;;;;2.57;2.10;;;20.80;99.90;;;;;;4984009;28;20633;-92
2021/08/23 11:26:25;;;;;;;3.87;2.20;;;20.90;99.90;;;;;;4978308;28;20809;-92
2021/08/23 11:28:52;;;;;;;3.77;1.90;;;20.70;99.90;;;;;;4966891;28;21257;-93
2021/08/23 11:31:23;;;;;;;3.17;2.07;;;20.80;99.90;;;;;;4970966;28;20618;-93
2021/08/23 11:33:50;;;;;;;2.67;2.23;;;20.80;99.90;;;;;;4968339;28;20830;-92
2021/08/23 11:36:19;;;;;;;6.63;2.80;;;20.90;99.90;;;;;;4967049;28;20772;-91
2021/08/23 11:38:46;;;;;;;3.17;2.30;;;21.00;99.90;;;;;;4967607;28;20636;-92
2021/08/23 11:41:14;;;;;;;4.00;2.57;;;21.00;99.90;;;;;;4969768;28;20991;-92
2021/08/23 11:43:44;;;;;;;2.57;2.37;;;21.00;99.90;;;;;;4967765;28;21044;-93
2021/08/23 11:46:13;;;;;;;2.37;2.17;;;21.20;99.90;;;;;;4967255;28;20677;-93
2021/08/23 11:48:44;;;;;;;2.57;1.90;;;21.10;99.90;;;;;;4968182;28;20629;-93
2021/08/23 11:51:11;;;;;;;10.60;1.90;;;21.30;99.90;;;;;;4965934;28;20666;-92
2021/08/23 11:53:38;;;;;;;2.50;2.10;;;21.30;99.90;;;;;;4967126;28;20976;-94
2021/08/23 11:56:06;;;;;;;2.80;2.20;;;21.30;99.90;;;;;;4967455;28;20760;-93
2021/08/23 11:58:38;;;;;;;2.27;2.07;;;22.00;99.90;;;;;;4975781;28;20621;-93
2021/08/23 12:01:07;;;;;;;1.87;1.77;;;23.30;99.90;;;;;;4967506;28;20649;-92
2021/08/23 12:03:37;;;;;;;1.70;1.60;;;23.10;99.90;;;;;;4971854;28;20657;-91
2021/08/23 12:06:06;;;;;;;1.50;1.40;;;23.10;99.90;;;;;;4973842;28;20693;-91
2021/08/23 12:08:36;;;;;;;2.13;1.73;;;23.40;99.90;;;;;;4964331;28;20676;-92
2021/08/23 12:11:07;;;;;;;2.73;1.63;;;24.30;99.90;;;;;;4965952;28;20644;-92
2021/08/23 12:13:38;;;;;;;1.60;1.50;;;25.40;99.90;;;;;;4978627;28;20641;-92
2021/08/23 12:16:07;;;;;;;1.80;1.50;;;25.00;99.90;;;;;;4990622;28;20653;-92
2021/08/23 12:18:35;;;;;;;2.03;1.80;;;25.10;99.90;;;;;;4991053;28;20630;-92
2021/08/23 12:21:13;;;;;;;1.80;1.70;;;24.90;99.90;;;;;;4975316;28;20987;-92
2021/08/23 12:23:49;;;;;;;2.73;1.17;;;25.10;99.90;;;;;;4970031;28;20641;-92
2021/08/23 12:26:16;;;;;;;2.70;2.00;;;26.50;99.90;;;;;;4969130;28;20696;-93
2021/08/23 12:28:51;;;;;;;2.57;2.37;;;26.40;99.90;;;;;;4966072;28;20673;-93
2021/08/23 12:31:18;;;;;;;1.87;1.70;;;26.90;99.90;;;;;;4967239;28;20680;-92
2021/08/23 12:33:46;;;;;;;2.10;2.00;;;26.30;99.90;;;;;;4966855;28;20629;-92
2021/08/23 12:36:14;;;;;;;2.00;1.90;;;26.20;99.90;;;;;;4965421;28;20677;-93
2021/08/23 12:38:44;;;;;;;2.77;1.90;;;25.90;99.90;;;;;;4967356;28;20605;-92
2021/08/23 12:41:11;;;;;;;2.17;1.80;;;25.90;99.90;;;;;;4962732;28;20756;-92
2021/08/23 12:43:40;;;;;;;2.53;2.27;;;25.60;99.90;;;;;;4966896;28;21048;-92
2021/08/23 12:46:07;;;;;;;3.83;1.90;;;24.80;99.90;;;;;;4968664;28;20672;-94
2021/08/23 12:48:34;;;;;;;1.63;1.53;;;24.50;99.90;;;;;;4969097;28;20752;-94
2021/08/23 12:51:03;;;;;;;2.10;1.90;;;24.20;99.90;;;;;;4964135;28;20720;-94
2021/08/23 12:53:32;;;;;;;2.17;1.97;;;24.50;99.90;;;;;;4968262;28;20640;-94
2021/08/23 12:56:01;;;;;;;1.97;1.87;;;25.80;99.90;;;;;;4969137;28;20661;-96